sensor_id;sensor_type;location;lat;lon;timestamp;temperature;humidity
7461;DHT22;6757;52.258;12.840;2023-02-04T00:00:17;3.30;99.90
7461;DHT22;6757;52.258;12.840;2023-02-04T00:02:45;3.20;99.90
7461;DHT22;6757;52.258;12.840;2023-02-04T00:05:12;3.20;99.90
7461;DHT22;6757;52.258;12.840;2023-02-04T00:10:07;3.20;99.90
7461;DHT22;6757;52.258;12.840;2023-02-04T00:12:35;3.20;99.90
7461;DHT22;6757;52.258;12.840;2023-02-04T00:15:02;3.20;99.90
7461;DHT22;6757;52.258;12.840;2023-02-04T00:17:31;3.20;99.90
7461;DHT22;6757;52.258;12.840;2023-02-04T00:19:58;3.20;99.90
7461;DHT22;6757;52.258;12.840;2023-02-04T00:22:25;3.20;99.90
7461;DHT22;6757;52.258;12.840;2023-02-04T00:24:53;3.20;99.90
7461;DHT22;6757;52.258;12.840;2023-02-04T00:27:20;3.20;99.90
7461;DHT22;6757;52.258;12.840;2023-02-04T00:29:47;3.20;99.90
7461;DHT22;6757;52.258;12.840;2023-02-04T00:32:13;3.20;99.90
7461;DHT22;6757;52.258;12.840;2023-02-04T00:34:42;3.20;99.90
7461;DHT22;6757;52.258;12.840;2023-02-04T00:37:09;3.10;99.90
7461;DHT22;6757;52.258;12.840;2023-02-04T00:39:36;3.10;99.90
7461;DHT22;6757;52.258;12.840;2023-02-04T00:42:03;3.10;99.90
7461;DHT22;6757;52.258;12.840;2023-02-04T00:46:57;3.10;99.90
7461;DHT22;6757;52.258;12.840;2023-02-04T00:51:52;3.10;99.90
7461;DHT22;6757;52.258;12.840;2023-02-04T00:54:19;3.10;99.90
7461;DHT22;6757;52.258;12.840;2023-02-04T00:56:46;3.10;99.90
7461;DHT22;6757;52.258;12.840;2023-02-04T00:59:13;3.10;99.90
7461;DHT22;6757;52.258;12.840;2023-02-04T01:01:40;3.10;99.90
7461;DHT22;6757;52.258;12.840;2023-02-04T01:04:07;3.10;99.90
7461;DHT22;6757;52.258;12.840;2023-02-04T01:06:34;3.10;99.90
7461;DHT22;6757;52.258;12.840;2023-02-04T01:09:03;3.10;99.90
7461;DHT22;6757;52.258;12.840;2023-02-04T01:11:30;3.00;99.90
7461;DHT22;6757;52.258;12.840;2023-02-04T01:13:58;3.10;99.90
7461;DHT22;6757;52.258;12.840;2023-02-04T01:16:25;3.00;99.90
7461;DHT22;6757;52.258;12.840;2023-02-04T01:21:20;3.00;99.90
7461;DHT22;6757;52.258;12.840;2023-02-04T01:23:47;3.00;99.90
7461;DHT22;6757;52.258;12.840;2023-02-04T01:26:16;3.00;99.90
7461;DHT22;6757;52.258;12.840;2023-02-04T01:31:10;3.00;99.90
7461;DHT22;6757;52.258;12.840;2023-02-04T01:33:38;3.00;99.90
7461;DHT22;6757;52.258;12.840;2023-02-04T01:36:05;3.00;99.90
7461;DHT22;6757;52.258;12.840;2023-02-04T01:38:32;3.00;99.90
7461;DHT22;6757;52.258;12.840;2023-02-04T01:40:59;3.00;99.90
7461;DHT22;6757;52.258;12.840;2023-02-04T01:43:27;3.00;99.90
7461;DHT22;6757;52.258;12.840;2023-02-04T01:45:54;3.00;99.90
7461;DHT22;6757;52.258;12.840;2023-02-04T01:48:22;2.90;99.90
7461;DHT22;6757;52.258;12.840;2023-02-04T01:50:52;2.90;99.90
7461;DHT22;6757;52.258;12.840;2023-02-04T01:53:24;2.90;99.90
7461;DHT22;6757;52.258;12.840;2023-02-04T01:55:52;2.80;99.90
7461;DHT22;6757;52.258;12.840;2023-02-04T01:58:19;2.80;99.90
7461;DHT22;6757;52.258;12.840;2023-02-04T02:00:47;2.70;99.90
7461;DHT22;6757;52.258;12.840;2023-02-04T02:03:14;2.60;99.90
7461;DHT22;6757;52.258;12.840;2023-02-04T02:05:44;2.50;99.90
7461;DHT22;6757;52.258;12.840;2023-02-04T02:08:12;2.50;99.90
7461;DHT22;6757;52.258;12.840;2023-02-04T02:10:42;2.50;99.90
7461;DHT22;6757;52.258;12.840;2023-02-04T02:13:16;2.40;99.90
7461;DHT22;6757;52.258;12.840;2023-02-04T02:15:46;2.40;99.90
7461;DHT22;6757;52.258;12.840;2023-02-04T02:18:13;2.30;99.90
7461;DHT22;6757;52.258;12.840;2023-02-04T02:20:42;2.30;99.90
7461;DHT22;6757;52.258;12.840;2023-02-04T02:23:14;2.30;99.90
7461;DHT22;6757;52.258;12.840;2023-02-04T02:25:46;2.30;99.90
7461;DHT22;6757;52.258;12.840;2023-02-04T02:28:16;2.30;99.90
7461;DHT22;6757;52.258;12.840;2023-02-04T02:30:43;2.20;99.90
7461;DHT22;6757;52.258;12.840;2023-02-04T02:33:11;2.30;99.90
7461;DHT22;6757;52.258;12.840;2023-02-04T02:35:39;2.20;99.90
7461;DHT22;6757;52.258;12.840;2023-02-04T02:38:08;2.20;99.90
7461;DHT22;6757;52.258;12.840;2023-02-04T02:40:35;2.20;99.90
7461;DHT22;6757;52.258;12.840;2023-02-04T02:43:04;2.10;99.90
7461;DHT22;6757;52.258;12.840;2023-02-04T02:45:32;2.10;99.90
7461;DHT22;6757;52.258;12.840;2023-02-04T02:48:00;2.00;99.90
7461;DHT22;6757;52.258;12.840;2023-02-04T02:50:29;1.90;99.90
7461;DHT22;6757;52.258;12.840;2023-02-04T02:55:26;1.70;99.90
7461;DHT22;6757;52.258;12.840;2023-02-04T02:57:55;1.70;99.90
7461;DHT22;6757;52.258;12.840;2023-02-04T03:00:25;1.60;99.90
7461;DHT22;6757;52.258;12.840;2023-02-04T03:02:57;1.60;99.90
7461;DHT22;6757;52.258;12.840;2023-02-04T03:05:26;1.50;99.90
7461;DHT22;6757;52.258;12.840;2023-02-04T03:07:54;1.50;99.90
7461;DHT22;6757;52.258;12.840;2023-02-04T03:10:21;1.50;99.90
7461;DHT22;6757;52.258;12.840;2023-02-04T03:12:48;1.30;99.90
7461;DHT22;6757;52.258;12.840;2023-02-04T03:15:15;1.30;99.90
7461;DHT22;6757;52.258;12.840;2023-02-04T03:17:44;1.30;99.90
7461;DHT22;6757;52.258;12.840;2023-02-04T03:20:12;1.30;99.90
7461;DHT22;6757;52.258;12.840;2023-02-04T03:22:42;1.20;99.90
7461;DHT22;6757;52.258;12.840;2023-02-04T03:27:36;1.20;99.90
7461;DHT22;6757;52.258;12.840;2023-02-04T03:30:04;1.20;99.90
7461;DHT22;6757;52.258;12.840;2023-02-04T03:32:33;1.10;99.90
7461;DHT22;6757;52.258;12.840;2023-02-04T03:35:01;1.00;99.90
7461;DHT22;6757;52.258;12.840;2023-02-04T03:37:28;1.00;99.90
7461;DHT22;6757;52.258;12.840;2023-02-04T03:39:55;0.90;99.90
7461;DHT22;6757;52.258;12.840;2023-02-04T03:42:22;0.90;99.90
7461;DHT22;6757;52.258;12.840;2023-02-04T03:44:50;0.90;99.90
7461;DHT22;6757;52.258;12.840;2023-02-04T03:47:17;0.80;99.90
7461;DHT22;6757;52.258;12.840;2023-02-04T03:49:43;0.80;99.90
7461;DHT22;6757;52.258;12.840;2023-02-04T03:52:12;0.70;99.90
7461;DHT22;6757;52.258;12.840;2023-02-04T03:54:38;0.70;99.90
7461;DHT22;6757;52.258;12.840;2023-02-04T03:57:05;0.70;99.90
7461;DHT22;6757;52.258;12.840;2023-02-04T03:59:32;0.70;99.90
7461;DHT22;6757;52.258;12.840;2023-02-04T04:01:59;0.70;99.90
7461;DHT22;6757;52.258;12.840;2023-02-04T04:04:26;0.60;99.90
7461;DHT22;6757;52.258;12.840;2023-02-04T04:06:53;0.60;99.90
7461;DHT22;6757;52.258;12.840;2023-02-04T04:09:21;0.60;99.90
7461;DHT22;6757;52.258;12.840;2023-02-04T04:11:48;0.50;99.90
7461;DHT22;6757;52.258;12.840;2023-02-04T04:14:15;0.50;99.90
7461;DHT22;6757;52.258;12.840;2023-02-04T04:16:42;0.50;99.90
7461;DHT22;6757;52.258;12.840;2023-02-04T04:19:09;0.40;99.90
7461;DHT22;6757;52.258;12.840;2023-02-04T04:21:35;0.40;99.90
7461;DHT22;6757;52.258;12.840;2023-02-04T04:24:02;0.40;99.90
7461;DHT22;6757;52.258;12.840;2023-02-04T04:26:31;0.40;99.90
7461;DHT22;6757;52.258;12.840;2023-02-04T04:28:58;0.40;99.90
7461;DHT22;6757;52.258;12.840;2023-02-04T04:31:25;0.40;99.90
7461;DHT22;6757;52.258;12.840;2023-02-04T04:36:19;0.50;99.90
7461;DHT22;6757;52.258;12.840;2023-02-04T04:38:46;0.60;99.90
7461;DHT22;6757;52.258;12.840;2023-02-04T04:41:12;0.60;99.90
7461;DHT22;6757;52.258;12.840;2023-02-04T04:43:41;0.70;99.90
7461;DHT22;6757;52.258;12.840;2023-02-04T04:46:07;0.70;99.90
7461;DHT22;6757;52.258;12.840;2023-02-04T04:48:34;0.80;99.90
7461;DHT22;6757;52.258;12.840;2023-02-04T04:51:01;0.70;99.90
7461;DHT22;6757;52.258;12.840;2023-02-04T04:53:29;0.70;99.90
7461;DHT22;6757;52.258;12.840;2023-02-04T04:55:55;0.60;99.90
7461;DHT22;6757;52.258;12.840;2023-02-04T04:58:22;0.60;99.90
7461;DHT22;6757;52.258;12.840;2023-02-04T05:00:50;0.50;99.90
7461;DHT22;6757;52.258;12.840;2023-02-04T05:03:17;0.60;99.90
7461;DHT22;6757;52.258;12.840;2023-02-04T05:05:44;0.50;99.90
7461;DHT22;6757;52.258;12.840;2023-02-04T05:08:11;0.50;99.90
7461;DHT22;6757;52.258;12.840;2023-02-04T05:10:41;0.50;99.90
7461;DHT22;6757;52.258;12.840;2023-02-04T05:13:09;0.40;99.90
7461;DHT22;6757;52.258;12.840;2023-02-04T05:15:36;0.40;99.90
7461;DHT22;6757;52.258;12.840;2023-02-04T05:18:04;0.40;99.90
7461;DHT22;6757;52.258;12.840;2023-02-04T05:20:31;0.30;99.90
7461;DHT22;6757;52.258;12.840;2023-02-04T05:22:58;0.30;99.90
7461;DHT22;6757;52.258;12.840;2023-02-04T05:25:26;0.30;99.90
7461;DHT22;6757;52.258;12.840;2023-02-04T05:27:53;0.30;99.90
7461;DHT22;6757;52.258;12.840;2023-02-04T05:30:20;0.30;99.90
7461;DHT22;6757;52.258;12.840;2023-02-04T05:32:47;0.20;99.90
7461;DHT22;6757;52.258;12.840;2023-02-04T05:35:16;0.30;99.90
7461;DHT22;6757;52.258;12.840;2023-02-04T05:37:43;0.30;99.90
7461;DHT22;6757;52.258;12.840;2023-02-04T05:40:11;0.30;99.90
7461;DHT22;6757;52.258;12.840;2023-02-04T05:42:38;0.20;99.90
7461;DHT22;6757;52.258;12.840;2023-02-04T05:45:06;0.20;99.90
7461;DHT22;6757;52.258;12.840;2023-02-04T05:47:35;0.20;99.90
7461;DHT22;6757;52.258;12.840;2023-02-04T05:50:01;0.10;99.90
7461;DHT22;6757;52.258;12.840;2023-02-04T05:52:30;0.10;99.90
7461;DHT22;6757;52.258;12.840;2023-02-04T05:54:57;0.10;99.90
7461;DHT22;6757;52.258;12.840;2023-02-04T05:57:24;0.10;99.90
7461;DHT22;6757;52.258;12.840;2023-02-04T05:59:50;0.10;99.90
7461;DHT22;6757;52.258;12.840;2023-02-04T06:02:17;0.10;99.90
7461;DHT22;6757;52.258;12.840;2023-02-04T06:04:44;0.10;99.90
7461;DHT22;6757;52.258;12.840;2023-02-04T06:07:11;0.10;99.90
7461;DHT22;6757;52.258;12.840;2023-02-04T06:09:39;0.10;99.90
7461;DHT22;6757;52.258;12.840;2023-02-04T06:12:06;0.00;99.90
7461;DHT22;6757;52.258;12.840;2023-02-04T06:14:35;0.00;99.90
7461;DHT22;6757;52.258;12.840;2023-02-04T06:17:02;0.00;99.90
7461;DHT22;6757;52.258;12.840;2023-02-04T06:19:29;-0.10;99.90
7461;DHT22;6757;52.258;12.840;2023-02-04T06:21:56;-0.10;99.90
7461;DHT22;6757;52.258;12.840;2023-02-04T06:24:22;-0.10;99.90
7461;DHT22;6757;52.258;12.840;2023-02-04T06:26:51;-0.20;99.90
7461;DHT22;6757;52.258;12.840;2023-02-04T06:29:17;-0.10;99.90
7461;DHT22;6757;52.258;12.840;2023-02-04T06:31:44;-0.20;99.90
7461;DHT22;6757;52.258;12.840;2023-02-04T06:34:13;-0.20;99.90
7461;DHT22;6757;52.258;12.840;2023-02-04T06:36:40;-0.30;99.90
7461;DHT22;6757;52.258;12.840;2023-02-04T06:39:07;-0.30;99.90
7461;DHT22;6757;52.258;12.840;2023-02-04T06:41:34;-0.30;99.90
7461;DHT22;6757;52.258;12.840;2023-02-04T06:44:02;-0.30;99.90
7461;DHT22;6757;52.258;12.840;2023-02-04T06:46:29;-0.30;99.90
7461;DHT22;6757;52.258;12.840;2023-02-04T06:48:55;-0.40;99.90
7461;DHT22;6757;52.258;12.840;2023-02-04T06:51:22;-0.40;99.90
7461;DHT22;6757;52.258;12.840;2023-02-04T06:53:49;-0.50;99.90
7461;DHT22;6757;52.258;12.840;2023-02-04T06:56:17;-0.50;99.90
7461;DHT22;6757;52.258;12.840;2023-02-04T06:58:43;-0.50;99.90
7461;DHT22;6757;52.258;12.840;2023-02-04T07:01:12;-0.60;99.90
7461;DHT22;6757;52.258;12.840;2023-02-04T07:03:38;-0.60;99.90
7461;DHT22;6757;52.258;12.840;2023-02-04T07:06:05;-0.60;99.90
7461;DHT22;6757;52.258;12.840;2023-02-04T07:08:32;-0.70;99.90
7461;DHT22;6757;52.258;12.840;2023-02-04T07:10:59;-0.70;99.90
7461;DHT22;6757;52.258;12.840;2023-02-04T07:13:26;-0.70;99.90
7461;DHT22;6757;52.258;12.840;2023-02-04T07:15:53;-0.70;99.90
7461;DHT22;6757;52.258;12.840;2023-02-04T07:18:21;-0.80;99.90
7461;DHT22;6757;52.258;12.840;2023-02-04T07:23:15;-0.80;99.90
7461;DHT22;6757;52.258;12.840;2023-02-04T07:25:42;-0.80;99.90
7461;DHT22;6757;52.258;12.840;2023-02-04T07:28:09;-0.90;99.90
7461;DHT22;6757;52.258;12.840;2023-02-04T07:30:36;-0.80;99.90
7461;DHT22;6757;52.258;12.840;2023-02-04T07:33:03;-0.80;99.90
7461;DHT22;6757;52.258;12.840;2023-02-04T07:35:31;-0.80;99.90
7461;DHT22;6757;52.258;12.840;2023-02-04T07:37:58;-0.80;99.90
7461;DHT22;6757;52.258;12.840;2023-02-04T07:40:25;-0.80;99.90
7461;DHT22;6757;52.258;12.840;2023-02-04T07:42:52;-0.70;99.90
7461;DHT22;6757;52.258;12.840;2023-02-04T07:45:19;-0.80;99.90
7461;DHT22;6757;52.258;12.840;2023-02-04T07:47:45;-0.70;99.90
7461;DHT22;6757;52.258;12.840;2023-02-04T07:50:13;-0.70;99.90
7461;DHT22;6757;52.258;12.840;2023-02-04T07:52:41;-0.60;99.90
7461;DHT22;6757;52.258;12.840;2023-02-04T07:55:08;-0.60;99.90
7461;DHT22;6757;52.258;12.840;2023-02-04T07:57:35;-0.50;99.90
7461;DHT22;6757;52.258;12.840;2023-02-04T08:00:03;-0.50;99.90
7461;DHT22;6757;52.258;12.840;2023-02-04T08:02:31;-0.40;99.90
7461;DHT22;6757;52.258;12.840;2023-02-04T08:04:57;-0.40;99.90
7461;DHT22;6757;52.258;12.840;2023-02-04T08:07:24;-0.30;99.90
7461;DHT22;6757;52.258;12.840;2023-02-04T08:09:52;-0.30;99.90
7461;DHT22;6757;52.258;12.840;2023-02-04T08:12:19;-0.30;99.90
7461;DHT22;6757;52.258;12.840;2023-02-04T08:14:46;-0.20;99.90
7461;DHT22;6757;52.258;12.840;2023-02-04T08:17:13;-0.10;99.90
7461;DHT22;6757;52.258;12.840;2023-02-04T08:19:40;0.00;99.90
7461;DHT22;6757;52.258;12.840;2023-02-04T08:22:07;0.00;99.90
7461;DHT22;6757;52.258;12.840;2023-02-04T08:24:35;0.10;99.90
7461;DHT22;6757;52.258;12.840;2023-02-04T08:27:03;0.20;99.90
7461;DHT22;6757;52.258;12.840;2023-02-04T08:29:30;0.20;99.90
7461;DHT22;6757;52.258;12.840;2023-02-04T08:31:56;0.40;99.90
7461;DHT22;6757;52.258;12.840;2023-02-04T08:34:23;0.40;99.90
7461;DHT22;6757;52.258;12.840;2023-02-04T08:36:50;0.50;99.90
7461;DHT22;6757;52.258;12.840;2023-02-04T08:39:17;0.50;99.90
7461;DHT22;6757;52.258;12.840;2023-02-04T08:41:44;0.60;99.90
7461;DHT22;6757;52.258;12.840;2023-02-04T08:44:13;0.60;99.90
7461;DHT22;6757;52.258;12.840;2023-02-04T08:46:40;0.70;99.90
7461;DHT22;6757;52.258;12.840;2023-02-04T08:49:07;0.80;99.90
7461;DHT22;6757;52.258;12.840;2023-02-04T08:51:34;0.90;99.90
7461;DHT22;6757;52.258;12.840;2023-02-04T08:54:01;1.00;99.90
7461;DHT22;6757;52.258;12.840;2023-02-04T08:56:28;1.00;99.90
7461;DHT22;6757;52.258;12.840;2023-02-04T08:58:55;1.10;99.90
7461;DHT22;6757;52.258;12.840;2023-02-04T09:01:23;1.10;99.90
7461;DHT22;6757;52.258;12.840;2023-02-04T09:03:50;1.20;99.90
7461;DHT22;6757;52.258;12.840;2023-02-04T09:06:17;1.30;99.90
7461;DHT22;6757;52.258;12.840;2023-02-04T09:08:44;1.40;99.90
7461;DHT22;6757;52.258;12.840;2023-02-04T09:11:11;1.40;99.90
7461;DHT22;6757;52.258;12.840;2023-02-04T09:13:39;1.50;99.90
7461;DHT22;6757;52.258;12.840;2023-02-04T09:16:06;1.50;99.90
7461;DHT22;6757;52.258;12.840;2023-02-04T09:18:34;1.60;99.90
7461;DHT22;6757;52.258;12.840;2023-02-04T09:21:01;1.70;99.90
7461;DHT22;6757;52.258;12.840;2023-02-04T09:23:28;1.80;99.90
7461;DHT22;6757;52.258;12.840;2023-02-04T09:25:55;1.80;99.90
7461;DHT22;6757;52.258;12.840;2023-02-04T09:28:22;1.80;99.90
7461;DHT22;6757;52.258;12.840;2023-02-04T09:30:49;1.90;99.90
7461;DHT22;6757;52.258;12.840;2023-02-04T09:33:16;1.90;99.90
7461;DHT22;6757;52.258;12.840;2023-02-04T09:35:44;2.00;99.90
7461;DHT22;6757;52.258;12.840;2023-02-04T09:38:11;2.00;99.90
7461;DHT22;6757;52.258;12.840;2023-02-04T09:40:41;2.00;99.90
7461;DHT22;6757;52.258;12.840;2023-02-04T09:43:12;2.10;99.90
7461;DHT22;6757;52.258;12.840;2023-02-04T09:45:42;2.10;99.90
7461;DHT22;6757;52.258;12.840;2023-02-04T09:48:10;2.10;99.90
7461;DHT22;6757;52.258;12.840;2023-02-04T09:50:39;2.10;99.90
7461;DHT22;6757;52.258;12.840;2023-02-04T09:53:11;2.20;99.90
7461;DHT22;6757;52.258;12.840;2023-02-04T09:55:42;2.20;99.90
7461;DHT22;6757;52.258;12.840;2023-02-04T09:58:13;2.20;99.90
7461;DHT22;6757;52.258;12.840;2023-02-04T10:00:42;2.30;99.90
7461;DHT22;6757;52.258;12.840;2023-02-04T10:03:13;2.30;99.90
7461;DHT22;6757;52.258;12.840;2023-02-04T10:05:42;2.30;99.90
7461;DHT22;6757;52.258;12.840;2023-02-04T10:08:13;2.30;99.90
7461;DHT22;6757;52.258;12.840;2023-02-04T10:10:42;2.30;99.90
7461;DHT22;6757;52.258;12.840;2023-02-04T10:13:15;2.40;99.90
7461;DHT22;6757;52.258;12.840;2023-02-04T10:15:43;2.40;99.90
7461;DHT22;6757;52.258;12.840;2023-02-04T10:18:11;2.40;99.90
7461;DHT22;6757;52.258;12.840;2023-02-04T10:20:45;2.50;99.90
7461;DHT22;6757;52.258;12.840;2023-02-04T10:23:14;2.50;99.90
7461;DHT22;6757;52.258;12.840;2023-02-04T10:25:41;2.50;99.90
7461;DHT22;6757;52.258;12.840;2023-02-04T10:28:07;2.50;99.90
7461;DHT22;6757;52.258;12.840;2023-02-04T10:30:38;2.60;99.90
7461;DHT22;6757;52.258;12.840;2023-02-04T10:33:13;2.60;99.90
7461;DHT22;6757;52.258;12.840;2023-02-04T10:35:46;2.70;99.90
7461;DHT22;6757;52.258;12.840;2023-02-04T10:38:15;2.90;99.90
7461;DHT22;6757;52.258;12.840;2023-02-04T10:40:42;3.20;99.90
7461;DHT22;6757;52.258;12.840;2023-02-04T10:43:13;3.60;99.90
7461;DHT22;6757;52.258;12.840;2023-02-04T10:45:44;3.80;99.90
7461;DHT22;6757;52.258;12.840;2023-02-04T10:48:15;4.00;99.90
7461;DHT22;6757;52.258;12.840;2023-02-04T10:50:43;4.10;99.90
7461;DHT22;6757;52.258;12.840;2023-02-04T10:53:17;4.10;99.90
7461;DHT22;6757;52.258;12.840;2023-02-04T10:56:02;4.20;99.90
7461;DHT22;6757;52.258;12.840;2023-02-04T10:58:31;4.40;99.90
7461;DHT22;6757;52.258;12.840;2023-02-04T11:00:58;4.50;99.90
7461;DHT22;6757;52.258;12.840;2023-02-04T11:03:26;4.60;99.90
7461;DHT22;6757;52.258;12.840;2023-02-04T11:05:56;4.50;99.90
7461;DHT22;6757;52.258;12.840;2023-02-04T11:08:27;4.40;99.90
7461;DHT22;6757;52.258;12.840;2023-02-04T11:10:58;4.40;99.90
7461;DHT22;6757;52.258;12.840;2023-02-04T11:13:39;4.40;99.90
7461;DHT22;6757;52.258;12.840;2023-02-04T11:16:10;4.40;99.90
7461;DHT22;6757;52.258;12.840;2023-02-04T11:18:46;4.30;99.90
7461;DHT22;6757;52.258;12.840;2023-02-04T11:21:22;4.40;99.90
7461;DHT22;6757;52.258;12.840;2023-02-04T11:24:05;4.50;99.90
7461;DHT22;6757;52.258;12.840;2023-02-04T11:26:46;4.50;99.90
7461;DHT22;6757;52.258;12.840;2023-02-04T11:29:28;4.60;99.90
7461;DHT22;6757;52.258;12.840;2023-02-04T11:32:04;4.70;99.90
7461;DHT22;6757;52.258;12.840;2023-02-04T11:34:45;4.80;99.90
7461;DHT22;6757;52.258;12.840;2023-02-04T11:37:27;4.80;99.90
7461;DHT22;6757;52.258;12.840;2023-02-04T11:40:13;4.80;99.90
7461;DHT22;6757;52.258;12.840;2023-02-04T11:42:47;5.00;99.90
7461;DHT22;6757;52.258;12.840;2023-02-04T11:45:15;5.10;99.90
7461;DHT22;6757;52.258;12.840;2023-02-04T11:47:56;5.10;99.90
7461;DHT22;6757;52.258;12.840;2023-02-04T11:50:27;5.00;99.90
7461;DHT22;6757;52.258;12.840;2023-02-04T11:52:56;4.90;99.90
7461;DHT22;6757;52.258;12.840;2023-02-04T11:55:25;4.80;99.90
7461;DHT22;6757;52.258;12.840;2023-02-04T11:57:53;4.80;99.90
7461;DHT22;6757;52.258;12.840;2023-02-04T12:00:22;4.90;99.90
7461;DHT22;6757;52.258;12.840;2023-02-04T12:02:53;5.00;99.90
7461;DHT22;6757;52.258;12.840;2023-02-04T12:05:28;5.10;99.90
7461;DHT22;6757;52.258;12.840;2023-02-04T12:08:09;5.40;99.90
7461;DHT22;6757;52.258;12.840;2023-02-04T12:10:58;6.00;99.90
7461;DHT22;6757;52.258;12.840;2023-02-04T12:13:30;6.50;99.90
7461;DHT22;6757;52.258;12.840;2023-02-04T12:15:59;6.60;99.90
7461;DHT22;6757;52.258;12.840;2023-02-04T12:18:27;6.60;99.90
7461;DHT22;6757;52.258;12.840;2023-02-04T12:20:55;6.50;99.90
7461;DHT22;6757;52.258;12.840;2023-02-04T12:23:23;6.20;99.90
7461;DHT22;6757;52.258;12.840;2023-02-04T12:25:52;6.00;99.90
7461;DHT22;6757;52.258;12.840;2023-02-04T12:28:19;5.70;99.90
7461;DHT22;6757;52.258;12.840;2023-02-04T12:30:46;5.60;99.90
7461;DHT22;6757;52.258;12.840;2023-02-04T12:33:13;5.60;99.90
7461;DHT22;6757;52.258;12.840;2023-02-04T12:35:41;5.80;99.90
7461;DHT22;6757;52.258;12.840;2023-02-04T12:38:08;6.00;99.90
7461;DHT22;6757;52.258;12.840;2023-02-04T12:40:35;6.10;99.90
7461;DHT22;6757;52.258;12.840;2023-02-04T12:43:03;6.20;99.90
7461;DHT22;6757;52.258;12.840;2023-02-04T12:45:31;6.50;99.90
7461;DHT22;6757;52.258;12.840;2023-02-04T12:47:58;6.90;99.90
7461;DHT22;6757;52.258;12.840;2023-02-04T12:50:26;7.20;99.90
7461;DHT22;6757;52.258;12.840;2023-02-04T12:52:55;7.30;99.90
7461;DHT22;6757;52.258;12.840;2023-02-04T12:55:25;7.50;99.90
7461;DHT22;6757;52.258;12.840;2023-02-04T12:57:55;7.60;99.90
7461;DHT22;6757;52.258;12.840;2023-02-04T13:00:23;7.70;99.90
7461;DHT22;6757;52.258;12.840;2023-02-04T13:02:51;7.80;99.90
7461;DHT22;6757;52.258;12.840;2023-02-04T13:05:20;7.80;99.90
7461;DHT22;6757;52.258;12.840;2023-02-04T13:07:47;7.70;99.90
7461;DHT22;6757;52.258;12.840;2023-02-04T13:10:14;7.90;99.90
7461;DHT22;6757;52.258;12.840;2023-02-04T13:12:41;8.30;99.90
7461;DHT22;6757;52.258;12.840;2023-02-04T13:15:09;8.70;99.90
7461;DHT22;6757;52.258;12.840;2023-02-04T13:17:37;8.80;99.90
7461;DHT22;6757;52.258;12.840;2023-02-04T13:20:05;8.90;99.90
7461;DHT22;6757;52.258;12.840;2023-02-04T13:22:33;8.90;99.90
7461;DHT22;6757;52.258;12.840;2023-02-04T13:25:00;8.90;99.90
7461;DHT22;6757;52.258;12.840;2023-02-04T13:27:26;9.20;99.90
7461;DHT22;6757;52.258;12.840;2023-02-04T13:29:54;9.40;99.90
7461;DHT22;6757;52.258;12.840;2023-02-04T13:32:20;9.70;99.90
7461;DHT22;6757;52.258;12.840;2023-02-04T13:34:49;9.90;99.90
7461;DHT22;6757;52.258;12.840;2023-02-04T13:37:16;10.10;99.90
7461;DHT22;6757;52.258;12.840;2023-02-04T13:39:42;10.40;99.90
7461;DHT22;6757;52.258;12.840;2023-02-04T13:42:09;10.60;99.90
7461;DHT22;6757;52.258;12.840;2023-02-04T13:44:36;10.60;99.90
7461;DHT22;6757;52.258;12.840;2023-02-04T13:47:03;10.60;99.90
7461;DHT22;6757;52.258;12.840;2023-02-04T13:49:30;10.40;99.90
7461;DHT22;6757;52.258;12.840;2023-02-04T13:51:58;10.10;99.90
7461;DHT22;6757;52.258;12.840;2023-02-04T13:54:25;9.70;99.90
7461;DHT22;6757;52.258;12.840;2023-02-04T13:56:52;9.20;99.90
7461;DHT22;6757;52.258;12.840;2023-02-04T13:59:19;8.70;99.90
7461;DHT22;6757;52.258;12.840;2023-02-04T14:01:46;8.20;99.90
7461;DHT22;6757;52.258;12.840;2023-02-04T14:04:13;7.70;99.90
7461;DHT22;6757;52.258;12.840;2023-02-04T14:06:40;7.30;99.90
7461;DHT22;6757;52.258;12.840;2023-02-04T14:09:10;7.30;99.90
7461;DHT22;6757;52.258;12.840;2023-02-04T14:11:38;7.30;99.90
7461;DHT22;6757;52.258;12.840;2023-02-04T14:14:05;7.20;99.90
7461;DHT22;6757;52.258;12.840;2023-02-04T14:16:34;7.20;99.90
7461;DHT22;6757;52.258;12.840;2023-02-04T14:19:02;7.20;99.90
7461;DHT22;6757;52.258;12.840;2023-02-04T14:21:30;7.10;99.90
7461;DHT22;6757;52.258;12.840;2023-02-04T14:23:57;7.10;99.90
7461;DHT22;6757;52.258;12.840;2023-02-04T14:26:25;7.00;99.90
7461;DHT22;6757;52.258;12.840;2023-02-04T14:28:52;6.80;99.90
7461;DHT22;6757;52.258;12.840;2023-02-04T14:31:19;6.80;99.90
7461;DHT22;6757;52.258;12.840;2023-02-04T14:33:46;6.90;99.90
7461;DHT22;6757;52.258;12.840;2023-02-04T14:36:14;6.90;99.90
7461;DHT22;6757;52.258;12.840;2023-02-04T14:38:40;7.00;99.90
7461;DHT22;6757;52.258;12.840;2023-02-04T14:41:07;7.10;99.90
7461;DHT22;6757;52.258;12.840;2023-02-04T14:43:37;7.10;99.90
7461;DHT22;6757;52.258;12.840;2023-02-04T14:46:04;7.00;99.90
7461;DHT22;6757;52.258;12.840;2023-02-04T14:48:31;6.90;99.90
7461;DHT22;6757;52.258;12.840;2023-02-04T14:50:58;6.70;99.90
7461;DHT22;6757;52.258;12.840;2023-02-04T14:53:25;6.50;99.90
7461;DHT22;6757;52.258;12.840;2023-02-04T14:55:52;6.20;99.90
7461;DHT22;6757;52.258;12.840;2023-02-04T14:58:19;6.00;99.90
7461;DHT22;6757;52.258;12.840;2023-02-04T15:00:47;5.80;99.90
7461;DHT22;6757;52.258;12.840;2023-02-04T15:03:14;5.60;99.90
7461;DHT22;6757;52.258;12.840;2023-02-04T15:05:41;5.40;99.90
7461;DHT22;6757;52.258;12.840;2023-02-04T15:08:08;5.20;99.90
7461;DHT22;6757;52.258;12.840;2023-02-04T15:10:34;5.10;99.90
7461;DHT22;6757;52.258;12.840;2023-02-04T15:13:02;4.90;99.90
7461;DHT22;6757;52.258;12.840;2023-02-04T15:15:29;4.70;99.90
7461;DHT22;6757;52.258;12.840;2023-02-04T15:17:57;4.70;99.90
7461;DHT22;6757;52.258;12.840;2023-02-04T15:20:24;4.60;99.90
7461;DHT22;6757;52.258;12.840;2023-02-04T15:22:52;4.50;99.90
7461;DHT22;6757;52.258;12.840;2023-02-04T15:25:21;4.40;99.90
7461;DHT22;6757;52.258;12.840;2023-02-04T15:27:48;4.40;99.90
7461;DHT22;6757;52.258;12.840;2023-02-04T15:30:15;4.30;99.90
7461;DHT22;6757;52.258;12.840;2023-02-04T15:32:44;4.20;99.90
7461;DHT22;6757;52.258;12.840;2023-02-04T15:35:14;4.10;99.90
7461;DHT22;6757;52.258;12.840;2023-02-04T15:37:41;4.00;99.90
7461;DHT22;6757;52.258;12.840;2023-02-04T15:40:10;3.90;99.90
7461;DHT22;6757;52.258;12.840;2023-02-04T15:42:37;3.80;99.90
7461;DHT22;6757;52.258;12.840;2023-02-04T15:45:05;3.70;99.90
7461;DHT22;6757;52.258;12.840;2023-02-04T15:47:33;3.70;99.90
7461;DHT22;6757;52.258;12.840;2023-02-04T15:52:29;3.60;99.90
7461;DHT22;6757;52.258;12.840;2023-02-04T15:54:56;3.50;99.90
7461;DHT22;6757;52.258;12.840;2023-02-04T15:57:23;3.40;99.90
7461;DHT22;6757;52.258;12.840;2023-02-04T15:59:50;3.30;99.90
7461;DHT22;6757;52.258;12.840;2023-02-04T16:02:17;3.20;99.90
7461;DHT22;6757;52.258;12.840;2023-02-04T16:04:43;3.40;99.90
7461;DHT22;6757;52.258;12.840;2023-02-04T16:07:12;3.50;99.90
7461;DHT22;6757;52.258;12.840;2023-02-04T16:09:40;3.60;99.90
7461;DHT22;6757;52.258;12.840;2023-02-04T16:12:08;3.50;99.90
7461;DHT22;6757;52.258;12.840;2023-02-04T16:14:35;3.40;99.90
7461;DHT22;6757;52.258;12.840;2023-02-04T16:17:02;3.30;99.90
7461;DHT22;6757;52.258;12.840;2023-02-04T16:19:31;3.20;99.90
7461;DHT22;6757;52.258;12.840;2023-02-04T16:21:58;3.10;99.90
7461;DHT22;6757;52.258;12.840;2023-02-04T16:24:25;2.90;99.90
7461;DHT22;6757;52.258;12.840;2023-02-04T16:26:53;2.80;99.90
7461;DHT22;6757;52.258;12.840;2023-02-04T16:29:20;2.60;99.90